createdAt,value
2018-09-02T00:00:01.929Z,3.70
2018-09-02T00:02:30.082Z,3.50
2018-09-02T00:04:58.239Z,4.17
2018-09-02T00:07:26.376Z,4.17
2018-09-02T00:09:54.505Z,3.90
2018-09-02T00:12:22.643Z,3.63
2018-09-02T00:14:50.816Z,3.20
2018-09-02T00:17:18.959Z,3.53
2018-09-02T00:19:47.092Z,4.00
2018-09-02T00:22:15.221Z,4.10
2018-09-02T00:24:43.373Z,4.33
2018-09-02T00:27:11.513Z,3.90
2018-09-02T00:29:39.665Z,4.07
2018-09-02T00:32:07.793Z,4.30
2018-09-02T00:34:35.912Z,3.63
2018-09-02T00:37:04.054Z,4.03
2018-09-02T00:39:32.172Z,4.30
2018-09-02T00:42:00.077Z,3.20
2018-09-02T00:44:27.976Z,3.23
2018-09-02T00:46:56.111Z,3.73
2018-09-02T00:49:24.233Z,3.60
2018-09-02T00:51:52.358Z,3.90
2018-09-02T00:54:20.479Z,4.27
2018-09-02T00:56:48.655Z,5.13
2018-09-02T00:59:16.773Z,4.20
2018-09-02T01:01:44.892Z,4.43
2018-09-02T01:04:13.017Z,4.20
2018-09-02T01:06:40.920Z,3.77
2018-09-02T01:09:09.417Z,4.10
2018-09-02T01:11:37.747Z,4.00
2018-09-02T01:14:05.913Z,4.90
2018-09-02T01:16:34.058Z,4.43
2018-09-02T01:19:02.332Z,4.20
2018-09-02T01:21:30.429Z,5.17
2018-09-02T01:23:58.733Z,4.60
2018-09-02T01:26:26.854Z,4.00
2018-09-02T01:28:55.006Z,4.43
2018-09-02T01:31:23.148Z,4.60
2018-09-02T01:33:51.283Z,4.47
2018-09-02T01:36:19.187Z,3.73
2018-09-02T01:38:47.344Z,4.27
2018-09-02T01:41:15.464Z,3.90
2018-09-02T01:43:43.597Z,4.03
2018-09-02T01:46:11.723Z,4.47
2018-09-02T01:48:39.878Z,4.33
2018-09-02T01:51:08.038Z,4.67
2018-09-02T01:53:36.179Z,4.03
2018-09-02T01:56:04.358Z,4.40
2018-09-02T01:58:32.477Z,4.90
2018-09-02T02:01:00.657Z,4.23
2018-09-02T02:03:28.791Z,4.33
2018-09-02T02:05:56.906Z,4.40
2018-09-02T02:08:25.038Z,3.87
2018-09-02T02:10:53.174Z,4.40
2018-09-02T02:13:21.300Z,4.80
2018-09-02T02:15:49.427Z,3.97
2018-09-02T02:18:17.553Z,4.00
2018-09-02T02:20:45.677Z,4.33
2018-09-02T02:23:13.835Z,4.37
2018-09-02T02:25:41.722Z,4.83
2018-09-02T02:28:09.836Z,4.90
2018-09-02T02:30:37.989Z,4.20
2018-09-02T02:33:05.886Z,4.20
2018-09-02T02:35:34.043Z,4.13
2018-09-02T02:38:02.169Z,4.90
2018-09-02T02:40:30.304Z,4.70
2018-09-02T02:42:58.470Z,5.17
2018-09-02T02:45:26.597Z,5.47
2018-09-02T02:47:54.729Z,4.57
2018-09-02T02:50:22.888Z,5.00
2018-09-02T02:52:56.374Z,4.27
2018-09-02T02:55:24.536Z,4.20
2018-09-02T02:57:52.675Z,4.93
2018-09-02T03:00:20.851Z,5.10
2018-09-02T03:02:49.027Z,5.03
2018-09-02T03:05:17.124Z,4.43
2018-09-02T03:07:45.262Z,4.50
2018-09-02T03:10:13.398Z,5.33
2018-09-02T03:12:41.529Z,5.70
2018-09-02T03:15:09.653Z,4.90
2018-09-02T03:17:37.786Z,4.90
2018-09-02T03:20:05.930Z,4.57
2018-09-02T03:22:34.110Z,5.00
2018-09-02T03:25:02.241Z,5.50
2018-09-02T03:27:30.373Z,5.33
2018-09-02T03:29:58.517Z,5.20
2018-09-02T03:32:26.708Z,4.70
2018-09-02T03:34:54.841Z,6.10
2018-09-02T03:37:22.974Z,5.43
2018-09-02T03:39:51.132Z,4.93
2018-09-02T03:42:19.329Z,5.03
2018-09-02T03:44:47.614Z,5.40
2018-09-02T03:47:15.761Z,5.80
2018-09-02T03:49:43.902Z,5.33
2018-09-02T03:52:12.032Z,5.80
2018-09-02T03:54:40.184Z,5.50
2018-09-02T03:57:08.322Z,4.83
2018-09-02T03:59:36.459Z,5.20
2018-09-02T04:02:04.427Z,6.60
2018-09-02T04:04:32.585Z,5.40
2018-09-02T04:07:00.729Z,5.63
2018-09-02T04:09:28.642Z,5.10
2018-09-02T04:11:56.802Z,5.07
2018-09-02T04:14:24.937Z,5.90
2018-09-02T04:16:53.091Z,5.60
2018-09-02T04:19:21.233Z,5.50
2018-09-02T04:21:49.373Z,6.10
2018-09-02T04:24:17.504Z,5.43
2018-09-02T04:26:45.636Z,5.90
2018-09-02T04:29:13.786Z,6.30
2018-09-02T04:31:41.936Z,5.20
2018-09-02T04:34:10.061Z,5.40
2018-09-02T04:36:38.210Z,5.50
2018-09-02T04:39:07.962Z,5.53
2018-09-02T04:41:36.129Z,5.33
2018-09-02T04:44:04.292Z,5.93
2018-09-02T04:46:32.422Z,5.40
2018-09-02T04:49:00.322Z,6.63
2018-09-02T04:51:28.474Z,5.60
2018-09-02T04:53:56.610Z,5.60
2018-09-02T04:56:24.745Z,5.20
2018-09-02T04:58:52.877Z,5.90
2018-09-02T05:01:20.780Z,6.47
2018-09-02T05:03:48.942Z,5.80
2018-09-02T05:06:16.867Z,5.97
2018-09-02T05:08:44.996Z,5.93
2018-09-02T05:11:13.124Z,6.73
2018-09-02T05:13:41.245Z,5.87
2018-09-02T05:16:09.373Z,5.80
2018-09-02T05:18:37.512Z,6.23
2018-09-02T05:21:05.644Z,6.10
2018-09-02T05:23:33.788Z,5.70
2018-09-02T05:26:01.913Z,6.13
2018-09-02T05:28:30.053Z,5.47
2018-09-02T05:30:58.196Z,5.90
2018-09-02T05:33:26.367Z,5.60
2018-09-02T05:35:54.501Z,6.20
2018-09-02T05:38:22.638Z,6.80
2018-09-02T05:40:50.770Z,6.23
2018-09-02T05:43:18.906Z,5.97
2018-09-02T05:45:47.051Z,6.43
2018-09-02T05:48:15.202Z,5.93
2018-09-02T05:50:43.108Z,6.07
2018-09-02T05:53:11.250Z,5.33
2018-09-02T05:55:39.376Z,6.73
2018-09-02T05:58:07.515Z,6.47
2018-09-02T06:00:35.669Z,6.43
2018-09-02T06:03:03.818Z,6.50
2018-09-02T06:05:31.940Z,6.50
2018-09-02T06:08:00.083Z,6.43
2018-09-02T06:10:28.210Z,6.20
2018-09-02T06:12:56.337Z,5.93
2018-09-02T06:15:25.259Z,6.50
2018-09-02T06:17:53.386Z,7.03
2018-09-02T06:20:21.288Z,7.23
2018-09-02T06:22:49.434Z,6.07
2018-09-02T06:25:17.581Z,6.53
2018-09-02T06:27:45.714Z,6.37
2018-09-02T06:30:13.935Z,5.87
2018-09-02T06:32:42.051Z,6.03
2018-09-02T06:35:10.126Z,6.53
2018-09-02T06:37:38.282Z,5.80
2018-09-02T06:40:06.413Z,6.13
2018-09-02T06:42:34.560Z,5.63
2018-09-02T06:45:02.713Z,6.20
2018-09-02T06:47:33.389Z,8.50
2018-09-02T06:50:01.681Z,7.80
2018-09-02T06:52:29.813Z,8.03
2018-09-02T06:54:57.949Z,8.17
2018-09-02T06:57:26.126Z,8.00
2018-09-02T06:59:54.311Z,6.60
2018-09-02T07:02:22.458Z,7.37
2018-09-02T07:04:50.605Z,7.07
2018-09-02T07:07:18.784Z,7.37
2018-09-02T07:09:46.668Z,6.90
2018-09-02T07:12:14.799Z,6.43
2018-09-02T07:14:44.796Z,7.13
2018-09-02T07:17:12.930Z,7.00
2018-09-02T07:19:41.057Z,7.00
2018-09-02T07:22:09.246Z,5.97
2018-09-02T07:24:37.738Z,6.63
2018-09-02T07:27:05.900Z,7.87
2018-09-02T07:29:34.041Z,8.60
2018-09-02T07:32:02.165Z,7.70
2018-09-02T07:34:30.296Z,6.10
2018-09-02T07:36:58.416Z,9.83
2018-09-02T07:39:26.538Z,8.37
2018-09-02T07:41:54.654Z,6.83
2018-09-02T07:44:22.783Z,5.93
2018-09-02T07:46:50.917Z,6.67
2018-09-02T07:49:19.095Z,7.30
2018-09-02T07:51:47.230Z,7.10
2018-09-02T07:54:15.393Z,6.27
2018-09-02T07:56:43.581Z,7.47
2018-09-02T07:59:11.769Z,8.00
2018-09-02T08:01:39.944Z,7.93
2018-09-02T08:04:08.158Z,7.27
2018-09-02T08:06:36.296Z,10.37
2018-09-02T08:09:07.217Z,8.17
2018-09-02T08:11:35.333Z,6.40
2018-09-02T08:14:03.468Z,6.87
2018-09-02T08:16:31.590Z,6.20
2018-09-02T08:18:59.764Z,6.63
2018-09-02T08:21:27.984Z,6.80
2018-09-02T08:23:56.105Z,7.40
2018-09-02T08:26:24.248Z,7.03
2018-09-02T08:28:53.385Z,7.50
2018-09-02T08:31:21.520Z,7.67
2018-09-02T08:33:49.690Z,8.37
2018-09-02T08:36:17.851Z,7.93
2018-09-02T08:38:46.088Z,7.20
2018-09-02T08:41:14.199Z,7.20
2018-09-02T08:43:42.314Z,6.30
2018-09-02T08:46:10.470Z,6.90
2018-09-02T08:48:38.705Z,6.70
2018-09-02T08:51:06.866Z,6.27
2018-09-02T08:53:34.994Z,6.83
2018-09-02T08:56:02.977Z,6.40
2018-09-02T08:58:31.091Z,7.50
2018-09-02T09:00:59.222Z,6.43
2018-09-02T09:03:27.361Z,7.20
2018-09-02T09:05:55.502Z,6.70
2018-09-02T09:08:23.836Z,6.87
2018-09-02T09:10:52.616Z,6.87
2018-09-02T09:13:20.733Z,7.13
2018-09-02T09:15:48.856Z,7.00
2018-09-02T09:18:17.001Z,7.60
2018-09-02T09:20:45.120Z,6.80
2018-09-02T09:23:14.208Z,6.33
2018-09-02T09:25:44.202Z,6.17
2018-09-02T09:28:12.348Z,6.70
2018-09-02T09:30:46.341Z,6.50
2018-09-02T09:33:14.538Z,7.93
2018-09-02T09:35:42.720Z,7.07
2018-09-02T09:38:10.884Z,7.23
2018-09-02T09:40:39.002Z,6.53
2018-09-02T09:43:07.157Z,7.23
2018-09-02T09:45:36.270Z,6.70
2018-09-02T09:48:04.408Z,6.43
2018-09-02T09:50:32.556Z,7.07
2018-09-02T09:53:00.695Z,7.60
2018-09-02T09:55:28.969Z,6.77
2018-09-02T09:57:57.071Z,6.40
2018-09-02T10:00:30.670Z,8.47
2018-09-02T10:02:58.792Z,7.10
2018-09-02T10:05:26.961Z,7.30
2018-09-02T10:07:55.128Z,7.43
2018-09-02T10:10:23.325Z,6.83
2018-09-02T10:12:51.413Z,6.70
2018-09-02T10:15:19.554Z,7.20
2018-09-02T10:17:47.717Z,7.47
2018-09-02T10:20:15.676Z,6.90
2018-09-02T10:22:43.829Z,7.47
2018-09-02T10:25:11.972Z,7.97
2018-09-02T10:27:40.125Z,7.50
2018-09-02T10:30:08.269Z,7.30
2018-09-02T10:32:36.175Z,7.23
2018-09-02T10:35:04.352Z,6.47
2018-09-02T10:37:32.477Z,7.97
2018-09-02T10:40:00.618Z,7.03
2018-09-02T10:42:28.769Z,7.43
2018-09-02T10:44:57.078Z,7.60
2018-09-02T10:47:25.253Z,7.77
2018-09-02T10:49:53.462Z,7.63
2018-09-02T10:52:21.357Z,7.87
2018-09-02T10:54:49.289Z,7.60
2018-09-02T10:57:17.421Z,6.33
2018-09-02T10:59:45.674Z,6.47
2018-09-02T11:02:13.741Z,7.57
2018-09-02T11:04:41.924Z,6.67
2018-09-02T11:07:10.069Z,7.30
2018-09-02T11:09:38.226Z,6.80
2018-09-02T11:12:06.410Z,8.17
2018-09-02T11:14:34.589Z,10.77
2018-09-02T11:17:03.353Z,6.60
2018-09-02T11:19:31.545Z,7.20
2018-09-02T11:21:59.687Z,6.17
2018-09-02T11:24:27.825Z,6.47
2018-09-02T11:26:55.969Z,6.03
2018-09-02T11:29:24.111Z,5.33
2018-09-02T11:31:52.221Z,6.47
2018-09-02T11:34:20.371Z,6.43
2018-09-02T11:36:48.504Z,6.57
2018-09-02T11:39:16.665Z,5.90
2018-09-02T11:41:44.786Z,6.47
2018-09-02T11:44:12.696Z,7.37
2018-09-02T11:46:40.838Z,5.43
2018-09-02T11:49:08.964Z,5.97
2018-09-02T11:51:37.130Z,5.70
2018-09-02T11:54:05.473Z,5.90
2018-09-02T11:56:33.616Z,5.90
2018-09-02T11:59:01.769Z,5.47
2018-09-02T12:01:29.965Z,5.67
2018-09-02T12:03:58.183Z,5.37
2018-09-02T12:06:26.286Z,5.53
2018-09-02T12:08:54.401Z,5.27
2018-09-02T12:11:22.588Z,6.03
2018-09-02T12:13:50.743Z,5.53
2018-09-02T12:16:18.920Z,5.10
2018-09-02T12:18:47.017Z,5.33
2018-09-02T12:21:15.157Z,6.17
2018-09-02T12:23:43.293Z,6.00
2018-09-02T12:26:11.435Z,4.90
2018-09-02T12:28:39.574Z,5.63
2018-09-02T12:31:07.698Z,5.17
2018-09-02T12:33:35.826Z,5.63
2018-09-02T12:36:05.185Z,4.57
2018-09-02T12:38:33.314Z,4.53
2018-09-02T12:41:01.538Z,4.90
2018-09-02T12:43:29.694Z,5.50
2018-09-02T12:45:57.839Z,4.83
2018-09-02T12:48:25.976Z,4.73
2018-09-02T12:50:54.581Z,5.00
2018-09-02T12:53:22.721Z,5.50
2018-09-02T12:55:50.660Z,5.80
2018-09-02T12:58:18.788Z,6.03
2018-09-02T13:00:46.958Z,5.30
2018-09-02T13:03:15.109Z,5.87
2018-09-02T13:05:43.295Z,5.40
2018-09-02T13:08:11.495Z,5.73
2018-09-02T13:10:39.649Z,5.63
2018-09-02T13:13:07.813Z,6.47
2018-09-02T13:15:35.997Z,6.00
2018-09-02T13:18:04.157Z,5.87
2018-09-02T13:20:32.329Z,5.20
2018-09-02T13:23:00.486Z,6.00
2018-09-02T13:25:28.641Z,6.07
2018-09-02T13:27:56.789Z,5.73
2018-09-02T13:30:24.932Z,6.40
2018-09-02T13:32:53.089Z,6.07
2018-09-02T13:35:21.249Z,6.50
2018-09-02T13:37:49.398Z,6.03
2018-09-02T13:40:17.653Z,6.77
2018-09-02T13:42:45.682Z,6.50
2018-09-02T13:45:13.818Z,7.57
2018-09-02T13:47:41.957Z,6.80
2018-09-02T13:50:10.132Z,7.40
2018-09-02T13:52:38.128Z,6.63
2018-09-02T13:55:06.307Z,6.70
2018-09-02T13:57:34.453Z,6.60
2018-09-02T14:00:02.590Z,6.70
2018-09-02T14:02:30.798Z,7.73
2018-09-02T14:04:58.924Z,8.33
2018-09-02T14:07:27.055Z,7.43
2018-09-02T14:09:55.187Z,8.00
2018-09-02T14:12:23.316Z,7.53
2018-09-02T14:14:51.630Z,8.67
2018-09-02T14:17:19.928Z,7.53
2018-09-02T14:19:48.078Z,7.50
2018-09-02T14:22:16.169Z,7.67
2018-09-02T14:24:45.162Z,8.00
2018-09-02T14:27:13.324Z,8.67
2018-09-02T14:29:41.509Z,7.90
2018-09-02T14:32:09.677Z,7.50
2018-09-02T14:34:37.988Z,8.90
2018-09-02T14:37:06.273Z,8.60
2018-09-02T14:39:34.445Z,8.70
2018-09-02T14:42:02.601Z,9.17
2018-09-02T14:44:30.775Z,8.60
2018-09-02T14:46:58.931Z,9.07
2018-09-02T14:49:27.109Z,9.50
2018-09-02T14:51:55.317Z,8.67
2018-09-02T14:54:23.470Z,9.00
2018-09-02T14:56:51.706Z,9.30
2018-09-02T14:59:19.565Z,9.67
2018-09-02T15:01:47.727Z,9.00
2018-09-02T15:04:15.899Z,9.97
2018-09-02T15:06:44.082Z,10.90
2018-09-02T15:09:12.262Z,8.90
2018-09-02T15:11:40.414Z,9.43
2018-09-02T15:14:08.585Z,9.27
2018-09-02T15:16:36.740Z,9.73
2018-09-02T15:19:04.909Z,9.90
2018-09-02T15:21:33.089Z,9.63
2018-09-02T15:24:01.229Z,10.50
2018-09-02T15:26:29.368Z,10.57
2018-09-02T15:28:57.525Z,10.83
2018-09-02T15:31:25.693Z,11.07
2018-09-02T15:33:53.852Z,10.43
2018-09-02T15:36:22.024Z,10.17
2018-09-02T15:38:50.171Z,11.47
2018-09-02T15:41:18.322Z,10.80
2018-09-02T15:43:46.466Z,11.50
2018-09-02T15:46:14.621Z,11.00
2018-09-02T15:48:42.765Z,11.33
2018-09-02T15:51:10.913Z,10.37
2018-09-02T15:53:39.098Z,10.67
2018-09-02T15:56:07.252Z,9.97
2018-09-02T15:58:35.407Z,11.20
2018-09-02T16:01:03.624Z,10.80
2018-09-02T16:03:31.750Z,10.73
2018-09-02T16:05:59.913Z,10.80
2018-09-02T16:08:28.069Z,10.90
2018-09-02T16:10:56.217Z,11.30
2018-09-02T16:13:24.379Z,10.80
2018-09-02T16:15:52.534Z,10.80
2018-09-02T16:18:20.683Z,10.90
2018-09-02T16:20:48.858Z,11.20
2018-09-02T16:23:17.014Z,10.90
2018-09-02T16:25:45.178Z,10.00
2018-09-02T16:28:13.326Z,10.13
2018-09-02T16:30:41.458Z,10.97
2018-09-02T16:33:09.675Z,11.40
2018-09-02T16:35:37.809Z,11.10
2018-09-02T16:38:05.942Z,11.20
2018-09-02T16:40:34.084Z,10.70
2018-09-02T16:43:02.227Z,10.80
2018-09-02T16:45:30.393Z,9.83
2018-09-02T16:47:58.581Z,10.30
2018-09-02T16:50:26.729Z,10.60
2018-09-02T16:52:55.323Z,10.97
2018-09-02T16:55:23.409Z,11.47
2018-09-02T16:57:51.552Z,12.30
2018-09-02T17:00:19.841Z,10.27
2018-09-02T17:02:47.978Z,9.83
2018-09-02T17:05:18.704Z,11.03
2018-09-02T17:07:47.240Z,11.70
2018-09-02T17:10:20.619Z,10.50
2018-09-02T17:12:49.277Z,10.13
2018-09-02T17:15:17.406Z,10.13
2018-09-02T17:17:45.659Z,9.90
2018-09-02T17:20:21.041Z,10.33
2018-09-02T17:22:49.378Z,10.67
2018-09-02T17:25:17.540Z,10.27
2018-09-02T17:27:45.789Z,10.27
2018-09-02T17:30:15.058Z,11.20
2018-09-02T17:32:43.210Z,10.10
2018-09-02T17:35:11.345Z,10.63
2018-09-02T17:37:39.484Z,11.87
2018-09-02T17:40:07.686Z,10.63
2018-09-02T17:42:35.951Z,10.80
2018-09-02T17:45:04.110Z,10.93
2018-09-02T17:47:32.249Z,9.83
2018-09-02T17:50:00.456Z,10.50
2018-09-02T17:52:28.579Z,9.00
2018-09-02T17:54:56.753Z,10.27
2018-09-02T17:57:24.937Z,10.10
2018-09-02T17:59:53.070Z,9.67
2018-09-02T18:02:21.291Z,9.00
2018-09-02T18:04:49.403Z,9.33
2018-09-02T18:07:17.684Z,9.40
2018-09-02T18:09:45.828Z,8.40
2018-09-02T18:12:13.976Z,10.27
2018-09-02T18:14:42.149Z,8.90
2018-09-02T18:17:10.301Z,10.20
2018-09-02T18:19:38.448Z,10.17
2018-09-02T18:22:06.785Z,9.90
2018-09-02T18:24:34.952Z,9.60
2018-09-02T18:27:03.129Z,9.87
2018-09-02T18:29:31.273Z,10.00
2018-09-02T18:31:59.423Z,10.50
2018-09-02T18:34:27.367Z,10.27
2018-09-02T18:36:55.586Z,10.30
2018-09-02T18:39:23.928Z,10.80
2018-09-02T18:41:51.927Z,11.00
2018-09-02T18:44:20.125Z,11.77
2018-09-02T18:46:48.301Z,12.17
2018-09-02T18:49:16.499Z,12.27
2018-09-02T18:51:44.634Z,12.50
2018-09-02T18:54:13.644Z,12.23
2018-09-02T18:56:41.811Z,11.70
2018-09-02T18:59:10.096Z,11.60
2018-09-02T19:01:38.266Z,10.43
2018-09-02T19:04:06.265Z,11.93
2018-09-02T19:06:34.554Z,12.20
2018-09-02T19:09:02.833Z,13.50
2018-09-02T19:11:31.153Z,12.20
2018-09-02T19:13:59.693Z,12.30
2018-09-02T19:16:27.861Z,11.17
2018-09-02T19:18:56.014Z,10.80
2018-09-02T19:21:24.194Z,12.60
2018-09-02T19:23:52.373Z,12.20
2018-09-02T19:26:20.581Z,13.17
2018-09-02T19:28:48.735Z,12.50
2018-09-02T19:31:16.987Z,12.47
2018-09-02T19:33:45.166Z,13.60
2018-09-02T19:36:13.116Z,13.67
2018-09-02T19:38:41.255Z,12.90
2018-09-02T19:41:09.411Z,13.30
2018-09-02T19:43:37.636Z,13.00
2018-09-02T19:46:05.844Z,13.50
2018-09-02T19:48:34.013Z,14.47
2018-09-02T19:51:02.193Z,13.83
2018-09-02T19:53:30.359Z,12.80
2018-09-02T19:55:58.534Z,14.57
2018-09-02T19:58:26.965Z,14.73
2018-09-02T20:00:54.892Z,13.87
2018-09-02T20:03:22.841Z,15.90
2018-09-02T20:05:50.993Z,15.80
2018-09-02T20:08:18.941Z,15.60
2018-09-02T20:10:47.092Z,16.33
2018-09-02T20:13:15.506Z,15.90
2018-09-02T20:15:43.700Z,16.17
2018-09-02T20:18:11.860Z,16.03
2018-09-02T20:20:40.033Z,15.07
2018-09-02T20:23:08.165Z,13.90
2018-09-02T20:25:36.328Z,14.17
2018-09-02T20:28:04.481Z,13.87
2018-09-02T20:30:32.642Z,14.60
2018-09-02T20:33:00.794Z,14.03
2018-09-02T20:35:28.931Z,13.83
2018-09-02T20:37:57.156Z,14.50
2018-09-02T20:40:26.036Z,14.13
2018-09-02T20:42:54.206Z,15.40
2018-09-02T20:45:22.421Z,15.30
2018-09-02T20:47:50.517Z,14.30
2018-09-02T20:50:18.676Z,15.27
2018-09-02T20:52:46.606Z,15.13
2018-09-02T20:55:14.757Z,14.50
2018-09-02T20:57:42.901Z,14.20
2018-09-02T21:00:11.036Z,15.17
2018-09-02T21:02:39.218Z,15.50
2018-09-02T21:05:07.305Z,15.00
2018-09-02T21:07:35.457Z,14.80
2018-09-02T21:10:03.612Z,15.57
2018-09-02T21:12:31.769Z,16.80
2018-09-02T21:14:59.928Z,16.10
2018-09-02T21:17:28.108Z,15.90
2018-09-02T21:19:59.622Z,15.87
2018-09-02T21:22:27.805Z,15.93
2018-09-02T21:24:55.997Z,15.23
2018-09-02T21:27:24.258Z,17.00
2018-09-02T21:29:52.408Z,15.20
2018-09-02T21:32:20.545Z,15.67
2018-09-02T21:34:48.741Z,15.23
2018-09-02T21:37:16.942Z,15.93
2018-09-02T21:39:45.101Z,15.00
2018-09-02T21:42:13.013Z,15.50
2018-09-02T21:44:41.199Z,15.47
2018-09-02T21:47:09.351Z,16.20
2018-09-02T21:49:37.541Z,17.97
2018-09-02T21:52:05.748Z,17.07
2018-09-02T21:54:33.890Z,15.67
2018-09-02T21:57:02.069Z,16.33
2018-09-02T21:59:32.275Z,15.00
2018-09-02T22:02:00.448Z,16.03
2018-09-02T22:04:28.620Z,16.57
2018-09-02T22:06:56.777Z,17.30
2018-09-02T22:09:24.955Z,16.00
2018-09-02T22:11:53.126Z,15.23
2018-09-02T22:14:21.300Z,15.70
2018-09-02T22:16:49.493Z,17.33
2018-09-02T22:19:17.669Z,17.10
2018-09-02T22:21:45.906Z,16.60
2018-09-02T22:24:14.590Z,16.40
2018-09-02T22:26:42.729Z,16.00
2018-09-02T22:29:11.148Z,16.70
2018-09-02T22:31:39.366Z,16.20
2018-09-02T22:34:07.651Z,16.50
2018-09-02T22:36:35.909Z,16.00
2018-09-02T22:39:05.984Z,17.67
2018-09-02T22:41:34.001Z,16.57
2018-09-02T22:44:03.258Z,16.03
2018-09-02T22:46:31.392Z,16.43
2018-09-02T22:48:59.537Z,16.47
2018-09-02T22:51:27.702Z,16.40
2018-09-02T22:53:55.865Z,17.30
2018-09-02T22:56:24.029Z,16.27
2018-09-02T22:58:52.221Z,16.90
2018-09-02T23:01:20.402Z,16.77
2018-09-02T23:03:48.561Z,17.97
2018-09-02T23:06:16.716Z,17.13
2018-09-02T23:08:45.014Z,15.90
2018-09-02T23:11:13.197Z,16.03
2018-09-02T23:13:41.364Z,17.53
2018-09-02T23:16:09.568Z,17.57
2018-09-02T23:18:37.736Z,16.97
2018-09-02T23:21:05.980Z,16.80
2018-09-02T23:23:34.197Z,19.23
2018-09-02T23:26:02.332Z,18.30
2018-09-02T23:28:30.281Z,18.17
2018-09-02T23:30:58.440Z,18.30
2018-09-02T23:33:26.605Z,18.17
2018-09-02T23:35:54.550Z,17.90
2018-09-02T23:38:22.691Z,18.23
2018-09-02T23:40:50.835Z,16.97
2018-09-02T23:43:18.973Z,17.20
2018-09-02T23:45:47.409Z,17.37
2018-09-02T23:48:15.553Z,17.37
2018-09-02T23:50:43.724Z,18.07
2018-09-02T23:53:11.885Z,18.57
2018-09-02T23:55:40.066Z,17.13
2018-09-02T23:58:08.351Z,18.40
